createdAt,value
2022-12-25T00:01:10.864Z,5.50
2022-12-25T00:06:20.085Z,5.40
2022-12-25T00:11:26.576Z,5.60
2022-12-25T00:16:33.260Z,5.50
2022-12-25T00:21:40.225Z,5.30
2022-12-25T00:26:46.076Z,5.30
2022-12-25T00:31:52.930Z,5.40
2022-12-25T00:37:00.635Z,5.30
2022-12-25T00:42:20.094Z,5.20
2022-12-25T00:47:27.332Z,5.20
2022-12-25T00:52:34.941Z,5.10
2022-12-25T00:57:41.994Z,4.50
2022-12-25T01:02:48.498Z,4.50
2022-12-25T01:07:56.308Z,4.80
2022-12-25T01:13:02.649Z,4.90
2022-12-25T01:18:12.778Z,5.00
2022-12-25T01:23:19.164Z,4.70
2022-12-25T01:28:26.132Z,4.60
2022-12-25T01:33:33.167Z,4.50
2022-12-25T01:38:39.507Z,4.30
2022-12-25T01:44:09.692Z,4.30
2022-12-25T01:49:25.295Z,4.30
2022-12-25T01:54:40.112Z,4.10
2022-12-25T01:59:48.090Z,3.90
2022-12-25T02:05:01.867Z,3.90
2022-12-25T02:10:11.533Z,4.00
2022-12-25T02:15:22.798Z,4.00
2022-12-25T02:20:48.604Z,3.60
2022-12-25T02:26:33.125Z,3.50
2022-12-25T02:31:50.463Z,3.40
2022-12-25T02:37:16.266Z,3.30
2022-12-25T02:42:55.827Z,3.50
2022-12-25T02:48:21.078Z,3.30
2022-12-25T02:53:47.026Z,3.20
2022-12-25T02:59:12.453Z,3.30
2022-12-25T03:04:41.457Z,3.10
2022-12-25T03:10:20.900Z,3.20
2022-12-25T03:15:46.205Z,2.90
2022-12-25T03:21:12.700Z,2.90
2022-12-25T03:26:37.868Z,3.10
2022-12-25T03:31:54.596Z,3.10
2022-12-25T03:37:45.329Z,3.00
2022-12-25T03:43:14.711Z,2.80
2022-12-25T03:48:40.115Z,3.00
2022-12-25T03:54:17.298Z,3.10
2022-12-25T03:59:42.979Z,3.10
2022-12-25T04:05:07.712Z,2.70
2022-12-25T04:10:31.492Z,2.80
2022-12-25T04:15:55.231Z,2.30
2022-12-25T04:21:10.151Z,2.40
2022-12-25T04:26:34.532Z,2.50
2022-12-25T04:31:59.702Z,2.40
2022-12-25T04:37:05.765Z,2.50
2022-12-25T04:42:11.924Z,2.20
2022-12-25T04:47:20.333Z,2.10
2022-12-25T04:52:27.002Z,2.00
2022-12-25T04:57:34.776Z,2.30
2022-12-25T05:02:41.087Z,2.40
2022-12-25T05:07:48.067Z,2.20
2022-12-25T05:12:54.561Z,2.00
2022-12-25T05:18:01.326Z,2.40
2022-12-25T05:23:08.779Z,1.90
2022-12-25T05:28:15.683Z,1.20
2022-12-25T05:33:22.273Z,1.20
2022-12-25T05:38:28.708Z,1.50
2022-12-25T05:43:35.687Z,1.70
2022-12-25T05:48:42.618Z,1.70
2022-12-25T05:53:48.066Z,1.60
2022-12-25T05:58:55.700Z,1.60
2022-12-25T06:04:08.414Z,1.20
2022-12-25T06:09:13.796Z,1.80
2022-12-25T06:14:20.782Z,1.40
2022-12-25T06:19:27.501Z,0.90
2022-12-25T06:24:34.268Z,0.80
2022-12-25T06:29:41.849Z,0.50
2022-12-25T06:34:49.994Z,1.00
2022-12-25T06:39:57.137Z,1.20
2022-12-25T06:45:03.958Z,1.50
2022-12-25T06:50:11.368Z,1.60
2022-12-25T06:55:18.237Z,1.60
2022-12-25T07:00:25.177Z,1.40
2022-12-25T07:05:32.238Z,1.30
2022-12-25T07:10:39.914Z,1.30
2022-12-25T07:15:48.353Z,1.40
2022-12-25T07:20:55.909Z,1.30
2022-12-25T07:26:04.726Z,1.10
2022-12-25T07:31:17.152Z,0.40
2022-12-25T07:36:24.089Z,0.60
2022-12-25T07:41:31.861Z,0.70
2022-12-25T07:46:38.182Z,1.40
2022-12-25T07:51:44.717Z,1.20
2022-12-25T07:56:57.687Z,1.20
2022-12-25T08:02:04.481Z,1.20
2022-12-25T08:07:12.348Z,1.90
2022-12-25T08:12:19.926Z,2.10
2022-12-25T08:17:27.824Z,2.70
2022-12-25T08:22:33.222Z,3.00
2022-12-25T08:27:39.889Z,3.40
2022-12-25T08:32:45.189Z,3.30
2022-12-25T08:37:51.541Z,3.60
2022-12-25T08:43:00.623Z,3.80
2022-12-25T08:48:07.338Z,4.00
2022-12-25T08:53:15.782Z,4.10
2022-12-25T08:58:22.576Z,4.40
2022-12-25T09:03:31.457Z,4.70
2022-12-25T09:08:45.912Z,4.80
2022-12-25T09:13:48.216Z,5.00
2022-12-25T09:18:56.582Z,5.00
2022-12-25T09:24:06.842Z,5.20
2022-12-25T09:29:14.815Z,4.80
2022-12-25T09:34:22.310Z,5.30
2022-12-25T09:39:29.351Z,5.90
2022-12-25T09:44:39.427Z,5.90
2022-12-25T09:50:11.351Z,6.00
2022-12-25T09:55:23.007Z,5.90
2022-12-25T10:00:34.216Z,6.60
2022-12-25T10:06:05.527Z,6.50
2022-12-25T10:11:39.658Z,6.50
2022-12-25T10:17:03.348Z,6.60
2022-12-25T10:22:32.670Z,6.90
2022-12-25T10:27:44.767Z,6.60
2022-12-25T10:32:52.885Z,7.20
2022-12-25T10:38:10.051Z,7.30
2022-12-25T10:43:18.522Z,7.50
2022-12-25T10:48:31.854Z,7.20
2022-12-25T10:53:42.856Z,7.40
2022-12-25T10:58:49.413Z,7.80
2022-12-25T11:03:56.008Z,8.00
2022-12-25T11:09:04.318Z,8.20
2022-12-25T11:14:17.363Z,8.40
2022-12-25T11:19:32.843Z,8.40
2022-12-25T11:24:39.297Z,8.40
2022-12-25T11:29:50.381Z,8.40
2022-12-25T11:34:59.211Z,8.30
2022-12-25T11:40:07.024Z,8.30
2022-12-25T11:45:23.656Z,8.20
2022-12-25T11:50:41.235Z,8.00
2022-12-25T11:56:01.437Z,8.10
2022-12-25T12:01:29.587Z,8.20
2022-12-25T12:07:00.014Z,8.20
2022-12-25T12:12:40.664Z,8.20
2022-12-25T12:17:45.831Z,8.30
2022-12-25T12:22:53.071Z,8.50
2022-12-25T12:28:05.836Z,8.40
2022-12-25T12:33:19.726Z,8.00
2022-12-25T12:38:27.589Z,8.00
2022-12-25T12:44:04.434Z,8.00
2022-12-25T12:49:29.285Z,8.00
2022-12-25T12:54:38.926Z,8.30
2022-12-25T12:59:47.109Z,8.50
2022-12-25T13:05:21.113Z,8.30
2022-12-25T13:10:41.569Z,8.10
2022-12-25T13:15:51.090Z,8.00
2022-12-25T13:21:02.279Z,8.00
2022-12-25T13:26:19.109Z,8.00
2022-12-25T13:31:30.440Z,8.00
2022-12-25T13:36:40.447Z,7.70
2022-12-25T13:42:10.593Z,7.70
2022-12-25T13:47:39.020Z,7.70
2022-12-25T13:52:45.784Z,7.70
2022-12-25T13:58:02.495Z,7.60
2022-12-25T14:03:14.552Z,7.70
2022-12-25T14:08:25.047Z,7.70
2022-12-25T14:13:36.958Z,7.90
2022-12-25T14:18:56.502Z,7.90
2022-12-25T14:24:03.443Z,7.70
2022-12-25T14:29:17.573Z,7.50
2022-12-25T14:34:25.628Z,7.60
2022-12-25T14:39:36.962Z,7.60
2022-12-25T14:44:44.165Z,7.50
2022-12-25T14:49:51.581Z,7.50
2022-12-25T14:55:04.909Z,7.70
2022-12-25T15:00:32.082Z,7.60
2022-12-25T15:05:42.796Z,7.40
2022-12-25T15:11:00.605Z,7.30
2022-12-25T15:16:22.544Z,7.30
2022-12-25T15:21:32.779Z,7.50
2022-12-25T15:26:39.002Z,7.60
2022-12-25T15:31:45.580Z,7.40
2022-12-25T15:36:53.243Z,7.40
2022-12-25T15:42:12.795Z,7.60
2022-12-25T15:47:21.134Z,7.50
2022-12-25T15:52:27.348Z,7.40
2022-12-25T15:57:38.955Z,7.50
2022-12-25T16:02:45.703Z,7.50
2022-12-25T16:07:52.496Z,7.40
2022-12-25T16:12:58.808Z,7.50
2022-12-25T16:18:06.225Z,7.80
2022-12-25T16:23:11.992Z,8.00
2022-12-25T16:28:19.047Z,8.30
2022-12-25T16:33:26.898Z,8.50
2022-12-25T16:38:34.618Z,8.80
2022-12-25T16:43:41.524Z,8.60
2022-12-25T16:48:49.290Z,8.50
2022-12-25T16:53:57.756Z,8.70
2022-12-25T16:59:04.084Z,8.40
2022-12-25T17:04:11.272Z,8.10
2022-12-25T17:09:18.069Z,8.30
2022-12-25T17:14:25.773Z,8.30
2022-12-25T17:19:33.470Z,8.30
2022-12-25T17:24:42.055Z,8.40
2022-12-25T17:29:50.693Z,8.30
2022-12-25T17:34:57.621Z,8.50
2022-12-25T17:40:05.192Z,8.40
2022-12-25T17:45:13.091Z,8.40
2022-12-25T17:50:20.643Z,8.50
2022-12-25T17:55:28.610Z,8.70
2022-12-25T18:00:35.192Z,9.00
2022-12-25T18:05:42.781Z,8.80
2022-12-25T18:10:48.913Z,8.60
2022-12-25T18:15:56.708Z,8.50
2022-12-25T18:21:03.945Z,8.50
2022-12-25T18:26:12.575Z,8.70
2022-12-25T18:31:26.619Z,9.10
2022-12-25T18:36:34.989Z,9.60
2022-12-25T18:41:43.801Z,9.60
2022-12-25T18:46:51.732Z,9.10
2022-12-25T18:52:50.080Z,8.90
2022-12-25T18:57:07.442Z,8.90
2022-12-25T19:02:17.406Z,8.90
2022-12-25T19:07:24.918Z,8.90
2022-12-25T19:12:33.391Z,8.70
2022-12-25T19:17:40.682Z,8.70
2022-12-25T19:22:48.172Z,9.20
2022-12-25T19:27:54.887Z,8.90
2022-12-25T19:33:11.051Z,9.10
2022-12-25T19:38:15.430Z,9.10
2022-12-25T19:43:22.907Z,9.10
2022-12-25T19:48:32.179Z,9.00
2022-12-25T19:53:40.574Z,8.70
2022-12-25T19:58:48.401Z,8.50
2022-12-25T20:03:56.693Z,8.60
2022-12-25T20:09:10.458Z,9.50
2022-12-25T20:14:18.638Z,8.90
2022-12-25T20:19:25.549Z,8.60
2022-12-25T20:24:33.990Z,8.50
2022-12-25T20:29:41.213Z,8.40
2022-12-25T20:34:48.459Z,8.80
2022-12-25T20:39:55.839Z,8.80
2022-12-25T20:45:06.850Z,8.60
2022-12-25T20:50:15.713Z,8.50
2022-12-25T20:55:23.201Z,8.10
2022-12-25T21:00:29.222Z,8.20
2022-12-25T21:05:41.240Z,8.20
2022-12-25T21:10:52.044Z,8.40
2022-12-25T21:16:00.949Z,8.20
2022-12-25T21:21:09.859Z,8.40
2022-12-25T21:26:30.241Z,9.00
2022-12-25T21:31:56.139Z,8.40
2022-12-25T21:37:03.432Z,8.80
2022-12-25T21:42:11.094Z,8.40
2022-12-25T21:47:18.920Z,8.20
2022-12-25T21:52:25.842Z,8.20
2022-12-25T21:57:33.603Z,8.70
2022-12-25T22:02:41.436Z,9.50
2022-12-25T22:07:48.607Z,8.80
2022-12-25T22:13:14.340Z,8.80
2022-12-25T22:18:39.534Z,8.60
2022-12-25T22:23:46.626Z,8.50
2022-12-25T22:28:53.378Z,8.20
2022-12-25T22:34:01.816Z,8.70
2022-12-25T22:39:10.319Z,8.70
2022-12-25T22:44:18.424Z,9.50
2022-12-25T22:49:27.276Z,9.80
2022-12-25T22:54:36.453Z,10.00
2022-12-25T22:59:44.178Z,10.10
2022-12-25T23:04:50.326Z,10.10
2022-12-25T23:09:57.083Z,10.30
2022-12-25T23:15:04.831Z,10.60
2022-12-25T23:20:33.637Z,10.40
2022-12-25T23:26:00.270Z,9.30
2022-12-25T23:31:09.061Z,9.00
2022-12-25T23:36:16.015Z,8.70
2022-12-25T23:41:22.685Z,8.50
2022-12-25T23:46:30.932Z,9.10
2022-12-25T23:51:42.723Z,8.50
2022-12-25T23:56:50.039Z,8.60
